createdAt,value
2023-02-06T00:04:30.504Z,4.63
2023-02-06T00:09:32.667Z,6.45
2023-02-06T00:14:34.840Z,6.30
2023-02-06T00:19:38.349Z,6.20
2023-02-06T00:24:41.336Z,6.22
2023-02-06T00:29:43.432Z,4.47
2023-02-06T00:34:45.607Z,5.13
2023-02-06T00:39:47.732Z,5.07
2023-02-06T00:44:49.823Z,5.20
2023-02-06T00:49:52.000Z,4.70
2023-02-06T00:54:54.122Z,13.70
2023-02-06T00:59:56.225Z,4.10
2023-02-06T01:04:58.322Z,9.23
2023-02-06T01:10:00.463Z,4.43
2023-02-06T01:15:02.979Z,12.18
2023-02-06T01:20:06.716Z,3.58
2023-02-06T01:25:09.045Z,3.95
2023-02-06T01:30:12.137Z,4.35
2023-02-06T01:35:14.326Z,4.55
2023-02-06T01:40:17.382Z,12.95
2023-02-06T01:45:22.147Z,4.20
2023-02-06T01:50:24.597Z,3.63
2023-02-06T01:55:26.871Z,4.32
2023-02-06T02:00:29.047Z,5.88
2023-02-06T02:05:33.569Z,4.80
2023-02-06T02:10:36.188Z,4.75
2023-02-06T02:16:03.167Z,3.83
2023-02-06T02:21:26.288Z,3.47
2023-02-06T02:26:49.977Z,9.63
2023-02-06T02:32:09.974Z,4.40
2023-02-06T02:37:26.243Z,2.80
2023-02-06T02:42:57.190Z,5.10
2023-02-06T02:48:08.654Z,4.53
2023-02-06T02:53:11.742Z,5.53
2023-02-06T02:58:19.818Z,3.47
2023-02-06T03:03:25.505Z,5.05
2023-02-06T03:08:46.482Z,3.92
2023-02-06T03:13:55.975Z,9.23
2023-02-06T03:19:14.193Z,4.88
2023-02-06T03:24:21.724Z,4.55
2023-02-06T03:29:25.379Z,3.53
2023-02-06T03:35:02.314Z,4.95
2023-02-06T03:40:06.552Z,5.30
2023-02-06T03:45:11.395Z,3.97
2023-02-06T03:50:15.508Z,4.38
2023-02-06T03:55:22.754Z,4.13
2023-02-06T04:00:26.337Z,3.05
2023-02-06T04:05:28.978Z,5.03
2023-02-06T04:10:31.341Z,4.30
2023-02-06T04:15:33.674Z,6.68
2023-02-06T04:20:41.145Z,4.60
2023-02-06T04:25:43.220Z,5.45
2023-02-06T04:30:45.387Z,5.10
2023-02-06T04:35:48.935Z,5.28
2023-02-06T04:40:51.049Z,8.95
2023-02-06T04:45:53.156Z,4.72
2023-02-06T04:50:55.234Z,6.30
2023-02-06T04:56:08.918Z,7.80
2023-02-06T05:01:11.169Z,6.10
2023-02-06T05:06:14.008Z,7.85
2023-02-06T05:11:16.171Z,5.18
2023-02-06T05:16:19.232Z,9.07
2023-02-06T05:21:21.893Z,47.80
2023-02-06T05:26:24.226Z,34.75
2023-02-06T05:31:26.543Z,4.22
2023-02-06T05:36:29.598Z,7.57
2023-02-06T05:41:31.911Z,4.57
2023-02-06T05:46:34.003Z,14.02
2023-02-06T05:51:36.277Z,18.33
2023-02-06T05:56:38.471Z,13.40
2023-02-06T06:01:40.597Z,8.02
2023-02-06T06:06:42.676Z,5.72
2023-02-06T06:11:44.808Z,11.73
2023-02-06T06:16:46.950Z,7.15
2023-02-06T06:21:49.148Z,8.07
2023-02-06T06:26:51.397Z,9.73
2023-02-06T06:31:54.139Z,8.38
2023-02-06T06:36:56.407Z,8.57
2023-02-06T06:41:58.555Z,8.13
2023-02-06T06:47:00.645Z,6.95
2023-02-06T06:52:03.640Z,7.22
2023-02-06T06:57:06.626Z,17.00
2023-02-06T07:02:10.332Z,6.72
2023-02-06T07:07:12.430Z,7.35
2023-02-06T07:12:14.597Z,7.07
2023-02-06T07:17:16.718Z,7.80
2023-02-06T07:22:21.868Z,5.32
2023-02-06T07:27:24.072Z,6.60
2023-02-06T07:32:27.361Z,4.78
2023-02-06T07:37:29.498Z,10.90
2023-02-06T07:42:33.746Z,5.80
2023-02-06T07:47:35.837Z,6.80
2023-02-06T07:52:38.153Z,5.55
2023-02-06T07:57:40.237Z,7.13
2023-02-06T08:02:42.760Z,7.00
2023-02-06T08:07:45.000Z,6.25
2023-02-06T08:12:47.361Z,7.80
2023-02-06T08:17:49.646Z,6.00
2023-02-06T08:22:51.891Z,6.15
2023-02-06T08:27:57.337Z,3.88
2023-02-06T08:32:59.643Z,6.25
2023-02-06T08:38:01.928Z,5.93
2023-02-06T08:43:04.199Z,6.75
2023-02-06T08:48:06.627Z,5.90
2023-02-06T08:53:08.936Z,4.85
2023-02-06T08:58:11.147Z,4.93
2023-02-06T09:03:13.318Z,7.50
2023-02-06T09:08:15.814Z,10.90
2023-02-06T09:13:18.018Z,10.63
2023-02-06T09:18:20.653Z,9.32
2023-02-06T09:23:22.836Z,5.68
2023-02-06T09:28:25.071Z,5.63
2023-02-06T09:33:27.677Z,5.82
2023-02-06T09:38:29.941Z,3.50
2023-02-06T09:43:34.026Z,8.00
2023-02-06T09:48:39.975Z,4.18
2023-02-06T09:53:48.141Z,3.42
2023-02-06T09:59:06.157Z,6.72
2023-02-06T10:04:33.820Z,3.05
2023-02-06T10:09:52.276Z,5.32
2023-02-06T10:15:07.737Z,2.70
2023-02-06T10:20:22.936Z,4.10
2023-02-06T10:25:37.416Z,4.50
2023-02-06T10:31:03.840Z,4.82
2023-02-06T10:36:24.501Z,4.95
2023-02-06T10:42:00.965Z,5.95
2023-02-06T10:47:11.450Z,4.18
2023-02-06T10:57:20.733Z,5.57
2023-02-06T11:02:22.896Z,4.30
2023-02-06T11:07:38.607Z,8.05
2023-02-06T11:13:11.421Z,6.82
2023-02-06T11:18:19.613Z,7.47
2023-02-06T11:23:27.541Z,8.35
2023-02-06T11:28:30.877Z,3.88
2023-02-06T11:33:42.174Z,3.65
2023-02-06T11:38:54.754Z,4.05
2023-02-06T11:44:02.951Z,6.88
2023-02-06T11:49:20.258Z,3.17
2023-02-06T11:54:29.298Z,6.10
2023-02-06T11:59:34.889Z,8.27
2023-02-06T12:04:41.715Z,4.47
2023-02-06T12:09:44.033Z,6.15
2023-02-06T12:14:49.682Z,4.47
2023-02-06T12:20:03.247Z,5.63
2023-02-06T12:25:05.878Z,5.93
2023-02-06T12:30:27.866Z,3.60
2023-02-06T12:35:44.161Z,3.90
2023-02-06T12:40:49.337Z,7.00
2023-02-06T12:46:02.862Z,7.55
2023-02-06T12:51:29.117Z,5.30
2023-02-06T12:56:49.202Z,5.63
2023-02-06T13:01:56.818Z,3.65
2023-02-06T13:07:06.826Z,4.00
2023-02-06T13:12:16.301Z,5.32
2023-02-06T13:17:27.206Z,4.97
2023-02-06T13:22:40.312Z,5.40
2023-02-06T13:27:42.588Z,3.45
2023-02-06T13:32:48.678Z,3.47
2023-02-06T13:37:52.102Z,5.32
2023-02-06T13:43:14.088Z,3.78
2023-02-06T13:48:47.833Z,5.63
2023-02-06T13:54:01.864Z,6.90
2023-02-06T13:59:24.243Z,11.23
2023-02-06T14:04:30.320Z,5.07
2023-02-06T14:09:50.320Z,6.38
2023-02-06T14:15:18.945Z,4.57
2023-02-06T14:20:47.712Z,8.02
2023-02-06T14:26:01.179Z,6.55
2023-02-06T14:31:13.577Z,21.27
2023-02-06T14:36:41.322Z,5.28
2023-02-06T14:41:43.692Z,4.32
2023-02-06T14:46:46.385Z,4.65
2023-02-06T14:51:51.662Z,7.53
2023-02-06T14:56:59.288Z,8.47
2023-02-06T15:02:14.095Z,8.25
2023-02-06T15:07:25.474Z,8.00
2023-02-06T15:12:29.536Z,5.82
2023-02-06T15:17:32.597Z,5.68
2023-02-06T15:22:36.157Z,7.43
2023-02-06T15:27:39.196Z,7.57
2023-02-06T15:32:41.531Z,6.28
2023-02-06T15:37:43.838Z,7.15
2023-02-06T15:42:50.545Z,8.05
2023-02-06T15:47:54.951Z,10.88
2023-02-06T15:52:57.280Z,7.80
2023-02-06T15:58:02.394Z,16.55
2023-02-06T16:03:08.710Z,10.82
2023-02-06T16:08:23.519Z,17.73
2023-02-06T16:13:28.660Z,13.68
2023-02-06T16:18:33.975Z,15.48
2023-02-06T16:23:51.704Z,9.48
2023-02-06T16:29:27.988Z,9.77
2023-02-06T16:34:40.965Z,9.70
2023-02-06T16:39:44.448Z,16.30
2023-02-06T16:44:50.088Z,16.55
2023-02-06T16:49:52.501Z,8.35
2023-02-06T16:55:02.085Z,12.05
2023-02-06T17:00:25.685Z,16.27
2023-02-06T17:05:29.384Z,19.70
2023-02-06T17:10:31.588Z,19.92
2023-02-06T17:15:33.935Z,18.33
2023-02-06T17:20:39.486Z,13.50
2023-02-06T17:25:44.300Z,14.10
2023-02-06T17:30:46.913Z,15.73
2023-02-06T17:35:49.506Z,11.52
2023-02-06T17:40:51.843Z,13.93
2023-02-06T17:45:53.963Z,12.05
2023-02-06T17:50:56.075Z,12.38
2023-02-06T17:55:58.218Z,13.40
2023-02-06T18:01:00.467Z,14.45
2023-02-06T18:06:03.280Z,14.80
2023-02-06T18:11:13.661Z,17.15
2023-02-06T18:16:21.535Z,14.35
2023-02-06T18:21:24.963Z,11.77
2023-02-06T18:26:28.011Z,13.90
2023-02-06T18:31:35.521Z,17.13
2023-02-06T18:36:38.462Z,26.45
2023-02-06T18:41:58.821Z,27.70
2023-02-06T18:47:00.914Z,27.80
2023-02-06T18:52:04.001Z,20.25
2023-02-06T18:57:06.703Z,38.00
2023-02-06T19:02:10.685Z,48.33
2023-02-06T19:07:34.508Z,24.65
2023-02-06T19:12:39.204Z,21.52
2023-02-06T19:17:42.163Z,27.92
2023-02-06T19:22:44.344Z,22.83
2023-02-06T19:27:46.554Z,19.77
2023-02-06T19:32:51.763Z,17.40
2023-02-06T19:37:53.832Z,25.10
2023-02-06T19:42:55.998Z,26.98
2023-02-06T19:47:58.434Z,19.60
2023-02-06T19:53:00.827Z,15.77
2023-02-06T19:58:03.275Z,22.08
2023-02-06T20:03:05.813Z,16.63
2023-02-06T20:08:08.004Z,16.20
2023-02-06T20:13:10.486Z,19.08
2023-02-06T20:18:12.987Z,15.65
2023-02-06T20:23:15.066Z,12.30
2023-02-06T20:28:17.216Z,11.65
2023-02-06T20:33:19.415Z,20.55
2023-02-06T20:38:21.570Z,27.20
2023-02-06T20:43:23.716Z,24.67
2023-02-06T20:48:26.114Z,26.23
2023-02-06T20:53:28.343Z,30.88
2023-02-06T20:58:30.673Z,19.83
2023-02-06T21:03:32.827Z,22.60
2023-02-06T21:08:35.146Z,26.55
2023-02-06T21:13:39.617Z,21.15
2023-02-06T21:18:42.929Z,25.65
2023-02-06T21:23:46.629Z,28.52
2023-02-06T21:28:48.800Z,17.90
2023-02-06T21:33:52.284Z,17.23
2023-02-06T21:38:54.465Z,14.13
2023-02-06T21:43:56.742Z,23.70
2023-02-06T21:48:58.910Z,21.50
2023-02-06T21:54:01.150Z,13.43
2023-02-06T21:59:03.303Z,23.92
2023-02-06T22:04:05.624Z,10.65
2023-02-06T22:09:10.043Z,15.05
2023-02-06T22:14:16.669Z,9.60
2023-02-06T22:19:18.931Z,9.27
2023-02-06T22:24:21.707Z,8.48
2023-02-06T22:29:24.137Z,10.07
2023-02-06T22:34:26.267Z,10.07
2023-02-06T22:39:28.410Z,9.10
2023-02-06T22:44:30.478Z,10.32
2023-02-06T22:49:32.584Z,12.23
2023-02-06T22:54:34.732Z,10.57
2023-02-06T22:59:36.812Z,13.40
2023-02-06T23:04:40.995Z,12.80
2023-02-06T23:09:43.209Z,12.63
2023-02-06T23:14:45.453Z,11.65
2023-02-06T23:19:47.587Z,8.32
2023-02-06T23:24:51.978Z,10.20
2023-02-06T23:29:54.135Z,10.20
2023-02-06T23:34:56.786Z,7.22
2023-02-06T23:39:59.174Z,10.02
2023-02-06T23:45:02.025Z,7.95
2023-02-06T23:50:05.715Z,9.40
2023-02-06T23:55:08.074Z,7.45
